createdAt,value
2019-04-21T00:01:14.070Z,14.92
2019-04-21T00:06:39.086Z,15.05
2019-04-21T00:09:02.658Z,15.12
2019-04-21T00:11:31.378Z,15.05
2019-04-21T00:13:52.732Z,14.93
2019-04-21T00:16:10.638Z,14.98
2019-04-21T00:18:58.072Z,15.13
2019-04-21T00:21:31.512Z,15.29
2019-04-21T00:24:06.147Z,15.43
2019-04-21T00:26:33.288Z,15.37
2019-04-21T00:29:33.007Z,15.14
2019-04-21T00:31:45.485Z,15.06
2019-04-21T00:34:00.570Z,14.76
2019-04-21T00:36:39.820Z,14.64
2019-04-21T00:39:28.808Z,14.51
2019-04-21T00:41:44.985Z,14.54
2019-04-21T00:44:07.058Z,14.17
2019-04-21T00:46:35.143Z,14.27
2019-04-21T00:49:02.671Z,14.22
2019-04-21T00:51:49.809Z,14.24
2019-04-21T00:54:18.451Z,13.90
2019-04-21T00:56:46.715Z,14.12
2019-04-21T00:59:18.230Z,14.04
2019-04-21T01:01:35.111Z,14.12
2019-04-21T01:04:02.212Z,14.11
2019-04-21T01:06:38.027Z,14.13
2019-04-21T01:08:59.061Z,14.31
2019-04-21T01:11:23.947Z,14.36
2019-04-21T01:13:59.486Z,14.18
2019-04-21T01:16:31.702Z,14.13
2019-04-21T01:18:51.871Z,13.94
2019-04-21T01:20:59.320Z,14.04
2019-04-21T01:23:25.663Z,13.75
2019-04-21T01:26:08.810Z,13.82
2019-04-21T01:28:35.951Z,13.81
2019-04-21T01:31:12.422Z,13.47
2019-04-21T01:33:39.797Z,13.30
2019-04-21T01:36:03.870Z,12.74
2019-04-21T01:38:38.129Z,12.43
2019-04-21T01:41:10.255Z,12.69
2019-04-21T01:43:27.617Z,13.14
2019-04-21T01:45:54.933Z,13.30
2019-04-21T01:48:22.919Z,13.24
2019-04-21T01:50:51.097Z,12.91
2019-04-21T01:53:42.469Z,13.06
2019-04-21T01:56:12.084Z,13.20
2019-04-21T01:58:37.980Z,13.46
2019-04-21T02:01:10.185Z,13.49
2019-04-21T02:06:18.206Z,13.14
2019-04-21T02:08:36.011Z,13.37
2019-04-21T02:11:12.264Z,13.55
2019-04-21T02:13:35.537Z,13.28
2019-04-21T02:16:08.202Z,13.15
2019-04-21T02:18:33.739Z,13.18
2019-04-21T02:20:50.115Z,13.23
2019-04-21T02:26:01.861Z,12.76
2019-04-21T02:28:40.478Z,13.04
2019-04-21T02:31:13.742Z,13.33
2019-04-21T02:33:39.273Z,13.36
2019-04-21T02:36:15.572Z,13.46
2019-04-21T02:41:01.318Z,13.62
2019-04-21T02:45:55.965Z,13.77
2019-04-21T02:50:46.358Z,13.50
2019-04-21T02:53:45.516Z,13.27
2019-04-21T02:55:44.637Z,13.06
2019-04-21T03:01:14.466Z,13.05
2019-04-21T03:03:54.584Z,12.94
2019-04-21T03:06:34.970Z,12.95
2019-04-21T03:09:03.442Z,13.08
2019-04-21T03:11:24.161Z,13.01
2019-04-21T03:16:28.547Z,12.73
2019-04-21T03:23:51.747Z,12.88
2019-04-21T03:36:37.919Z,13.11
2019-04-21T03:38:37.771Z,12.55
2019-04-21T03:40:57.272Z,12.98
2019-04-21T03:43:32.481Z,13.48
2019-04-21T03:45:49.710Z,13.72
2019-04-21T03:48:27.051Z,13.36
2019-04-21T03:50:47.396Z,13.57
2019-04-21T03:53:18.540Z,13.30
2019-04-21T03:58:25.958Z,13.46
2019-04-21T04:08:31.836Z,17.12
2019-04-21T04:11:04.695Z,17.92
2019-04-21T04:13:27.137Z,19.10
2019-04-21T04:18:35.434Z,20.72
2019-04-21T04:20:42.556Z,21.66
2019-04-21T04:23:37.301Z,21.94
2019-04-21T04:25:42.991Z,22.78
2019-04-21T04:28:31.563Z,23.08
2019-04-21T04:30:37.930Z,23.67
2019-04-21T04:33:12.476Z,24.33
2019-04-21T04:35:42.388Z,25.26
2019-04-21T04:40:44.878Z,25.97
2019-04-21T04:43:19.252Z,25.79
2019-04-21T04:45:38.475Z,25.95
2019-04-21T04:48:05.869Z,26.41
2019-04-21T04:53:05.213Z,27.97
2019-04-21T04:55:45.718Z,26.34
2019-04-21T04:58:15.996Z,26.73
2019-04-21T05:00:36.927Z,25.51
2019-04-21T05:02:56.388Z,23.30
2019-04-21T05:05:30.224Z,22.67
2019-04-21T05:07:57.748Z,21.58
2019-04-21T05:10:27.608Z,22.46
2019-04-21T05:15:16.239Z,25.00
2019-04-21T05:17:59.264Z,24.18
2019-04-21T05:22:35.518Z,23.39
2019-04-21T05:24:59.457Z,24.71
2019-04-21T05:27:25.660Z,23.72
2019-04-21T05:30:15.316Z,21.31
2019-04-21T05:32:41.761Z,20.65
2019-04-21T05:35:15.628Z,21.06
2019-04-21T05:37:43.292Z,23.15
2019-04-21T05:40:12.222Z,25.15
2019-04-21T05:42:39.918Z,25.25
2019-04-21T05:47:46.335Z,26.46
2019-04-21T05:50:13.395Z,26.26
2019-04-21T05:52:44.696Z,26.20
2019-04-21T05:55:31.805Z,26.20
2019-04-21T05:57:48.128Z,26.44
2019-04-21T06:00:31.664Z,27.32
2019-04-21T06:02:51.000Z,26.85
2019-04-21T06:05:20.893Z,24.48
2019-04-21T06:07:42.267Z,25.82
2019-04-21T06:10:07.258Z,26.08
2019-04-21T06:12:40.633Z,25.74
2019-04-21T06:15:07.986Z,24.94
2019-04-21T06:17:35.146Z,25.26
2019-04-21T06:22:33.289Z,22.65
2019-04-21T06:32:46.017Z,23.67
2019-04-21T06:37:39.747Z,24.24
2019-04-21T06:40:41.158Z,25.05
2019-04-21T06:42:13.273Z,26.68
2019-04-21T06:44:54.044Z,26.58
2019-04-21T06:47:26.045Z,27.05
2019-04-21T06:49:44.382Z,25.71
2019-04-21T06:52:33.447Z,25.48
2019-04-21T06:54:45.609Z,25.88
2019-04-21T06:57:12.260Z,27.11
2019-04-21T06:59:31.987Z,26.27
2019-04-21T07:02:28.767Z,25.04
2019-04-21T07:04:30.213Z,24.53
2019-04-21T07:07:01.472Z,25.31
2019-04-21T07:09:48.286Z,25.64
2019-04-21T07:11:54.996Z,25.98
2019-04-21T07:14:28.078Z,26.46
2019-04-21T07:16:56.444Z,27.74
2019-04-21T07:19:33.285Z,28.20
2019-04-21T07:22:03.337Z,28.15
2019-04-21T07:24:23.649Z,27.87
2019-04-21T07:26:47.717Z,26.79
2019-04-21T07:29:14.254Z,25.85
2019-04-21T07:31:47.029Z,25.66
2019-04-21T07:34:16.058Z,25.76
2019-04-21T07:36:48.050Z,25.11
2019-04-21T07:39:01.999Z,24.35
2019-04-21T07:41:24.937Z,25.48
2019-04-21T07:43:55.370Z,25.62
2019-04-21T07:46:23.796Z,25.41
2019-04-21T07:49:04.561Z,26.40
2019-04-21T07:51:47.697Z,27.20
2019-04-21T07:54:20.252Z,26.01
2019-04-21T07:56:28.283Z,27.74
2019-04-21T07:59:09.590Z,28.54
2019-04-21T08:01:42.341Z,27.88
2019-04-21T08:04:08.464Z,28.97
2019-04-21T08:06:40.815Z,28.17
2019-04-21T08:09:07.389Z,28.45
2019-04-21T08:11:28.171Z,29.06
2019-04-21T08:14:01.009Z,27.53
2019-04-21T08:16:35.027Z,27.15
2019-04-21T08:19:05.788Z,27.32
2019-04-21T08:21:29.950Z,27.11
2019-04-21T08:23:51.327Z,27.60
2019-04-21T08:26:29.210Z,28.88
2019-04-21T08:28:53.707Z,29.44
2019-04-21T08:31:30.523Z,28.79
2019-04-21T08:36:25.505Z,29.45
2019-04-21T08:38:41.723Z,29.78
2019-04-21T08:43:42.853Z,29.09
2019-04-21T08:46:05.402Z,29.19
2019-04-21T08:48:37.983Z,29.61
2019-04-21T08:51:14.211Z,29.94
2019-04-21T08:53:36.526Z,29.88
2019-04-21T09:01:30.354Z,26.28
2019-04-21T09:04:11.659Z,26.33
2019-04-21T09:06:59.194Z,27.75
2019-04-21T09:09:03.641Z,28.14
2019-04-21T09:11:28.746Z,26.25
2019-04-21T09:14:01.355Z,27.82
2019-04-21T09:16:26.655Z,28.56
2019-04-21T09:18:48.719Z,26.56
2019-04-21T09:21:25.898Z,26.48
2019-04-21T09:23:53.938Z,27.49
2019-04-21T09:26:23.276Z,28.10
2019-04-21T09:28:39.444Z,28.57
2019-04-21T09:31:01.234Z,26.34
2019-04-21T09:33:33.437Z,26.57
2019-04-21T09:35:58.867Z,28.05
2019-04-21T09:38:30.135Z,27.36
2019-04-21T09:40:52.724Z,28.26
2019-04-21T09:43:25.691Z,29.46
2019-04-21T09:45:45.669Z,28.74
2019-04-21T09:48:17.105Z,27.93
2019-04-21T09:50:41.333Z,27.64
2019-04-21T09:53:19.350Z,28.23
2019-04-21T09:55:42.993Z,26.94
2019-04-21T09:58:13.520Z,27.11
2019-04-21T10:00:43.562Z,28.23
2019-04-21T10:03:06.041Z,28.20
2019-04-21T10:05:29.636Z,27.32
2019-04-21T10:07:57.383Z,27.22
2019-04-21T10:10:25.170Z,26.78
2019-04-21T10:12:52.023Z,26.41
2019-04-21T10:15:19.121Z,26.05
2019-04-21T10:17:52.028Z,27.22
2019-04-21T10:20:18.476Z,27.71
2019-04-21T10:22:44.818Z,27.79
2019-04-21T10:25:12.581Z,27.69
2019-04-21T10:27:39.225Z,28.77
2019-04-21T10:30:09.851Z,28.28
2019-04-21T10:32:36.564Z,27.19
2019-04-21T10:35:05.567Z,28.15
2019-04-21T10:37:42.872Z,29.69
2019-04-21T10:40:00.146Z,29.27
2019-04-21T10:42:27.019Z,27.87
2019-04-21T10:44:54.738Z,29.88
2019-04-21T10:47:21.479Z,29.53
2019-04-21T10:49:49.071Z,28.79
2019-04-21T10:52:17.169Z,28.89
2019-04-21T10:55:06.869Z,27.89
2019-04-21T10:57:14.444Z,28.21
2019-04-21T10:59:46.227Z,28.49
2019-04-21T11:05:00.708Z,28.27
2019-04-21T11:07:58.950Z,29.37
2019-04-21T11:10:14.055Z,27.92
2019-04-21T11:12:41.391Z,27.75
2019-04-21T11:15:09.346Z,28.75
2019-04-21T11:17:36.430Z,29.67
2019-04-21T11:20:04.635Z,30.56
2019-04-21T11:22:33.471Z,30.74
2019-04-21T11:24:58.960Z,30.59
2019-04-21T11:27:25.118Z,31.54
2019-04-21T11:29:51.684Z,32.12
2019-04-21T11:32:19.083Z,32.91
2019-04-21T11:34:45.451Z,31.08
2019-04-21T11:37:14.355Z,29.69
2019-04-21T11:39:50.140Z,31.55
2019-04-21T11:42:12.062Z,32.47
2019-04-21T11:44:39.508Z,32.65
2019-04-21T11:47:07.802Z,33.51
2019-04-21T11:49:34.820Z,33.30
2019-04-21T11:52:01.134Z,33.81
2019-04-21T11:54:28.758Z,30.00
2019-04-21T11:56:55.195Z,30.94
2019-04-21T11:59:21.757Z,29.68
2019-04-21T12:01:48.178Z,28.15
2019-04-21T12:04:15.970Z,27.23
2019-04-21T12:06:46.653Z,27.61
2019-04-21T12:09:11.805Z,27.85
2019-04-21T12:11:39.035Z,29.50
2019-04-21T12:14:05.884Z,27.95
2019-04-21T12:16:33.123Z,28.89
2019-04-21T12:19:00.668Z,30.41
2019-04-21T12:21:32.034Z,31.10
2019-04-21T12:23:56.502Z,29.98
2019-04-21T12:26:24.110Z,30.77
2019-04-21T12:28:50.472Z,31.98
2019-04-21T12:31:27.726Z,31.72
2019-04-21T12:33:56.243Z,31.09
2019-04-21T12:36:24.058Z,30.52
2019-04-21T12:38:55.851Z,30.50
2019-04-21T12:41:18.520Z,30.95
2019-04-21T12:43:44.675Z,29.84
2019-04-21T12:46:11.952Z,29.74
2019-04-21T12:48:38.416Z,30.03
2019-04-21T12:51:05.987Z,29.86
2019-04-21T12:53:33.855Z,30.53
2019-04-21T12:56:00.360Z,31.51
2019-04-21T12:58:26.518Z,30.81
2019-04-21T13:00:52.826Z,30.31
2019-04-21T13:03:21.628Z,29.44
2019-04-21T13:05:47.565Z,30.66
2019-04-21T13:08:15.359Z,31.74
2019-04-21T13:10:42.294Z,32.25
2019-04-21T13:13:09.971Z,33.40
2019-04-21T13:15:37.530Z,33.54
2019-04-21T13:18:04.616Z,32.85
2019-04-21T13:20:30.976Z,30.85
2019-04-21T13:22:57.787Z,29.60
2019-04-21T13:25:24.048Z,29.34
2019-04-21T13:27:50.207Z,28.16
2019-04-21T13:30:18.150Z,29.55
2019-04-21T13:32:45.287Z,29.66
2019-04-21T13:35:12.965Z,30.51
2019-04-21T13:37:39.676Z,28.55
2019-04-21T13:40:34.147Z,29.14
2019-04-21T13:42:48.298Z,29.51
2019-04-21T13:45:12.262Z,30.86
2019-04-21T13:47:38.761Z,31.99
2019-04-21T13:50:07.168Z,32.07
2019-04-21T13:52:34.049Z,28.51
2019-04-21T13:55:01.232Z,26.92
2019-04-21T13:57:28.491Z,28.42
2019-04-21T13:59:55.107Z,29.66
2019-04-21T14:02:22.656Z,29.77
2019-04-21T14:04:49.680Z,30.20
2019-04-21T14:07:16.454Z,30.34
2019-04-21T14:09:49.950Z,29.99
2019-04-21T14:12:11.698Z,30.86
2019-04-21T14:14:38.621Z,29.85
2019-04-21T14:17:05.528Z,27.90
2019-04-21T14:19:33.245Z,27.06
2019-04-21T14:21:59.485Z,26.62
2019-04-21T14:24:26.750Z,26.80
2019-04-21T14:26:54.314Z,27.37
2019-04-21T14:29:21.751Z,27.44
2019-04-21T14:31:48.443Z,27.44
2019-04-21T14:34:15.991Z,28.33
2019-04-21T14:36:42.543Z,28.73
2019-04-21T14:39:10.541Z,28.83
2019-04-21T14:41:38.047Z,28.91
2019-04-21T14:44:04.793Z,28.72
2019-04-21T14:46:33.308Z,29.47
2019-04-21T14:49:01.596Z,30.62
2019-04-21T14:51:32.211Z,30.09
2019-04-21T14:54:03.703Z,30.26
2019-04-21T14:56:31.268Z,30.39
2019-04-21T14:59:00.565Z,29.67
2019-04-21T15:01:26.197Z,29.53
2019-04-21T15:03:52.563Z,30.19
2019-04-21T15:06:19.011Z,30.92
2019-04-21T15:08:45.239Z,29.23
2019-04-21T15:11:11.754Z,29.18
2019-04-21T15:13:39.614Z,29.33
2019-04-21T15:16:06.858Z,28.92
2019-04-21T15:18:34.650Z,29.30
2019-04-21T15:21:01.517Z,29.84
2019-04-21T15:23:30.065Z,29.85
2019-04-21T15:25:56.646Z,29.78
2019-04-21T15:28:22.757Z,29.87
2019-04-21T15:30:50.291Z,29.41
2019-04-21T15:33:18.138Z,28.75
2019-04-21T15:35:44.964Z,26.93
2019-04-21T15:38:11.847Z,26.91
2019-04-21T15:40:47.722Z,27.79
2019-04-21T15:43:06.546Z,28.48
2019-04-21T15:45:32.833Z,29.41
2019-04-21T15:48:00.173Z,29.74
2019-04-21T15:50:27.979Z,29.99
2019-04-21T15:52:56.374Z,29.10
2019-04-21T15:55:42.242Z,28.90
2019-04-21T15:58:28.247Z,29.23
2019-04-21T16:01:02.718Z,29.81
2019-04-21T16:03:29.180Z,29.56
2019-04-21T16:05:55.829Z,29.11
2019-04-21T16:08:22.115Z,28.73
2019-04-21T16:10:54.674Z,28.41
2019-04-21T16:13:16.369Z,28.22
2019-04-21T16:15:42.524Z,28.35
2019-04-21T16:18:10.040Z,28.35
2019-04-21T16:20:37.578Z,28.31
2019-04-21T16:23:04.547Z,27.91
2019-04-21T16:25:30.888Z,26.94
2019-04-21T16:27:57.295Z,26.83
2019-04-21T16:30:23.939Z,26.87
2019-04-21T16:32:50.305Z,27.22
2019-04-21T16:35:18.274Z,27.08
2019-04-21T16:37:45.832Z,27.22
2019-04-21T16:40:13.740Z,27.18
2019-04-21T16:42:40.469Z,27.18
2019-04-21T16:45:07.970Z,27.08
2019-04-21T16:47:34.189Z,27.08
2019-04-21T16:50:01.578Z,26.41
2019-04-21T16:52:30.061Z,25.45
2019-04-21T16:55:10.799Z,24.74
2019-04-21T16:57:39.860Z,24.78
2019-04-21T17:00:10.726Z,24.77
2019-04-21T17:02:38.371Z,24.76
2019-04-21T17:05:06.784Z,24.74
2019-04-21T17:07:32.966Z,24.53
2019-04-21T17:09:59.182Z,23.90
2019-04-21T17:12:26.755Z,23.90
2019-04-21T17:15:10.859Z,23.74
2019-04-21T17:17:44.238Z,23.63
2019-04-21T17:19:53.530Z,23.64
2019-04-21T17:22:17.888Z,23.68
2019-04-21T17:24:44.474Z,23.36
2019-04-21T17:27:11.195Z,23.21
2019-04-21T17:29:38.637Z,23.00
2019-04-21T17:32:07.886Z,22.65
2019-04-21T17:34:35.268Z,22.04
2019-04-21T17:37:01.318Z,21.95
2019-04-21T17:39:28.850Z,22.13
2019-04-21T17:42:07.025Z,22.18
2019-04-21T17:44:23.535Z,22.14
2019-04-21T17:46:56.357Z,22.10
2019-04-21T17:49:18.911Z,22.05
2019-04-21T17:51:54.610Z,21.97
2019-04-21T17:54:25.767Z,21.62
2019-04-21T17:57:11.224Z,21.64
2019-04-21T17:59:45.041Z,21.59
2019-04-21T18:02:02.240Z,21.45
2019-04-21T18:04:30.989Z,21.41
2019-04-21T18:07:07.459Z,21.50
2019-04-21T18:09:44.126Z,21.65
2019-04-21T18:12:07.544Z,21.86
2019-04-21T18:14:18.988Z,21.94
2019-04-21T18:16:47.859Z,21.62
2019-04-21T18:19:12.989Z,21.15
2019-04-21T18:21:50.063Z,21.16
2019-04-21T18:24:19.320Z,21.14
2019-04-21T18:26:52.171Z,21.07
2019-04-21T18:29:13.613Z,21.06
2019-04-21T18:31:45.614Z,21.10
2019-04-21T18:34:14.751Z,21.22
2019-04-21T18:36:49.983Z,21.31
2019-04-21T18:42:31.235Z,21.26
2019-04-21T18:45:28.072Z,21.47
2019-04-21T18:47:45.729Z,21.62
2019-04-21T18:49:54.449Z,21.77
2019-04-21T18:52:42.685Z,22.00
2019-04-21T18:55:05.286Z,22.05
2019-04-21T18:57:30.942Z,22.01
2019-04-21T18:59:51.215Z,22.12
2019-04-21T19:02:20.575Z,22.10
2019-04-21T19:04:46.835Z,22.08
2019-04-21T19:07:27.277Z,22.19
2019-04-21T19:10:22.563Z,22.13
2019-04-21T19:12:36.621Z,22.05
2019-04-21T19:14:54.921Z,21.72
2019-04-21T19:18:05.504Z,21.68
2019-04-21T19:22:20.130Z,21.56
2019-04-21T19:24:56.619Z,21.47
2019-04-21T19:27:19.270Z,21.38
2019-04-21T19:29:54.073Z,21.12
2019-04-21T19:32:25.651Z,21.12
2019-04-21T19:34:29.340Z,21.11
2019-04-21T19:36:59.533Z,21.10
2019-04-21T19:39:36.153Z,21.02
2019-04-21T19:42:00.823Z,21.08
2019-04-21T19:44:35.232Z,20.87
2019-04-21T19:47:02.998Z,20.73
2019-04-21T19:49:32.058Z,20.49
2019-04-21T19:51:51.484Z,20.56
2019-04-21T19:54:19.801Z,20.55
2019-04-21T19:56:38.491Z,20.72
2019-04-21T19:59:04.710Z,20.80
2019-04-21T20:01:31.761Z,20.80
2019-04-21T20:04:00.911Z,20.83
2019-04-21T20:06:44.015Z,20.61
2019-04-21T20:09:13.516Z,20.09
2019-04-21T20:11:38.854Z,20.44
2019-04-21T20:14:39.885Z,20.61
2019-04-21T20:16:37.457Z,20.92
2019-04-21T20:18:55.371Z,20.91
2019-04-21T20:21:16.396Z,21.04
2019-04-21T20:23:44.671Z,21.00
2019-04-21T20:26:12.170Z,20.99
2019-04-21T20:28:49.172Z,21.25
2019-04-21T20:31:23.669Z,21.22
2019-04-21T20:36:31.594Z,21.14
2019-04-21T20:38:42.125Z,21.08
2019-04-21T20:41:15.889Z,20.35
2019-04-21T20:43:49.280Z,20.32
2019-04-21T20:46:12.339Z,20.22
2019-04-21T20:48:37.212Z,20.29
2019-04-21T20:51:23.640Z,19.78
2019-04-21T20:53:36.083Z,19.64
2019-04-21T20:55:59.123Z,19.26
2019-04-21T20:58:34.635Z,20.55
2019-04-21T21:01:20.898Z,20.77
2019-04-21T21:03:30.097Z,20.69
2019-04-21T21:05:56.701Z,19.94
2019-04-21T21:08:32.737Z,20.48
2019-04-21T21:10:53.000Z,19.69
2019-04-21T21:13:26.437Z,19.77
2019-04-21T21:16:06.182Z,20.29
2019-04-21T21:20:48.359Z,20.07
2019-04-21T21:23:09.203Z,19.84
2019-04-21T21:25:47.015Z,20.33
2019-04-21T21:28:04.296Z,20.25
2019-04-21T21:30:34.598Z,19.49
2019-04-21T21:33:10.826Z,18.64
2019-04-21T21:35:31.028Z,18.75
2019-04-21T21:38:08.279Z,19.10
2019-04-21T21:40:30.516Z,18.71
2019-04-21T21:42:45.280Z,19.13
2019-04-21T21:45:17.242Z,18.82
2019-04-21T21:47:54.250Z,18.94
2019-04-21T21:50:19.944Z,18.62
2019-04-21T21:52:47.902Z,18.63
2019-04-21T21:55:05.775Z,18.53
2019-04-21T21:57:32.928Z,18.89
2019-04-21T22:00:04.723Z,18.05
2019-04-21T22:02:36.050Z,18.58
2019-04-21T22:05:05.455Z,18.57
2019-04-21T22:07:31.043Z,18.53
2019-04-21T22:09:54.573Z,18.44
2019-04-21T22:12:22.165Z,18.11
2019-04-21T22:14:52.063Z,18.88
2019-04-21T22:17:31.690Z,18.08
2019-04-21T22:20:13.277Z,18.01
2019-04-21T22:22:26.547Z,18.17
2019-04-21T22:24:53.168Z,18.04
2019-04-21T22:27:09.548Z,17.99
2019-04-21T22:29:41.791Z,17.60
2019-04-21T22:32:10.146Z,18.08
2019-04-21T22:34:38.601Z,18.08
2019-04-21T22:37:19.109Z,18.05
2019-04-21T22:39:51.664Z,18.20
2019-04-21T22:42:05.365Z,18.98
2019-04-21T22:44:24.799Z,18.30
2019-04-21T22:47:02.922Z,18.69
2019-04-21T22:49:21.442Z,18.34
2019-04-21T22:51:50.486Z,17.82
2019-04-21T22:54:22.193Z,17.94
2019-04-21T22:56:54.020Z,18.24
2019-04-21T22:59:16.019Z,17.97
2019-04-21T23:01:42.511Z,18.15
2019-04-21T23:04:10.286Z,18.11
2019-04-21T23:06:38.900Z,18.31
2019-04-21T23:09:06.733Z,18.56
2019-04-21T23:11:38.717Z,18.87
2019-04-21T23:14:05.039Z,19.15
2019-04-21T23:16:35.244Z,18.31
2019-04-21T23:19:18.630Z,18.72
2019-04-21T23:21:49.024Z,18.86
2019-04-21T23:24:08.747Z,19.06
2019-04-21T23:26:37.487Z,19.15
2019-04-21T23:29:09.025Z,19.24
2019-04-21T23:31:34.174Z,18.78
2019-04-21T23:33:46.493Z,18.88
2019-04-21T23:36:17.678Z,17.93
2019-04-21T23:38:44.910Z,19.58
2019-04-21T23:41:11.195Z,19.49
2019-04-21T23:43:38.543Z,19.45
2019-04-21T23:46:11.917Z,19.77
2019-04-21T23:48:48.890Z,19.92
2019-04-21T23:51:14.389Z,19.62
2019-04-21T23:53:29.429Z,19.03
2019-04-21T23:55:57.010Z,19.32
2019-04-21T23:58:27.413Z,19.39
